createdAt,value
2019-05-30T00:02:08.338Z,14.32
2019-05-30T00:04:37.982Z,14.33
2019-05-30T00:07:10.839Z,14.32
2019-05-30T00:09:38.888Z,14.24
2019-05-30T00:12:08.545Z,14.21
2019-05-30T00:14:38.284Z,14.24
2019-05-30T00:17:07.962Z,14.31
2019-05-30T00:19:37.597Z,14.23
2019-05-30T00:22:07.342Z,14.21
2019-05-30T00:24:37.197Z,14.20
2019-05-30T00:27:06.852Z,14.25
2019-05-30T00:29:36.484Z,14.18
2019-05-30T00:32:06.354Z,14.10
2019-05-30T00:34:35.981Z,14.13
2019-05-30T00:37:06.073Z,14.19
2019-05-30T00:39:35.705Z,14.16
2019-05-30T00:42:06.172Z,14.11
2019-05-30T00:44:35.882Z,14.04
2019-05-30T00:47:06.416Z,13.98
2019-05-30T00:49:36.163Z,14.03
2019-05-30T00:52:06.798Z,13.98
2019-05-30T00:54:36.644Z,14.02
2019-05-30T00:57:06.993Z,14.03
2019-05-30T00:59:36.672Z,14.00
2019-05-30T01:02:06.978Z,13.93
2019-05-30T01:04:36.716Z,13.97
2019-05-30T01:07:07.222Z,13.92
2019-05-30T01:09:36.915Z,13.87
2019-05-30T01:12:07.452Z,13.90
2019-05-30T01:14:37.156Z,13.93
2019-05-30T01:17:07.376Z,13.86
2019-05-30T01:19:37.133Z,13.80
2019-05-30T01:22:07.548Z,13.90
2019-05-30T01:24:37.463Z,14.04
2019-05-30T01:27:07.705Z,14.10
2019-05-30T01:29:37.327Z,14.11
2019-05-30T01:32:24.849Z,14.16
2019-05-30T01:34:54.603Z,14.13
2019-05-30T01:37:24.176Z,14.17
2019-05-30T01:39:54.114Z,14.17
2019-05-30T01:42:23.841Z,14.19
2019-05-30T01:44:53.506Z,14.14
2019-05-30T01:47:23.060Z,14.21
2019-05-30T01:49:52.640Z,14.22
2019-05-30T01:52:22.240Z,14.26
2019-05-30T01:54:51.880Z,14.17
2019-05-30T01:57:21.438Z,14.07
2019-05-30T01:59:51.053Z,14.16
2019-05-30T02:02:20.613Z,14.19
2019-05-30T02:04:50.175Z,14.22
2019-05-30T02:07:19.861Z,14.27
2019-05-30T02:09:49.578Z,14.35
2019-05-30T02:12:19.194Z,14.38
2019-05-30T02:14:48.753Z,14.32
2019-05-30T02:17:18.348Z,14.30
2019-05-30T02:19:47.932Z,14.28
2019-05-30T02:22:17.492Z,14.26
2019-05-30T02:24:47.078Z,14.32
2019-05-30T02:27:16.771Z,14.34
2019-05-30T02:29:46.362Z,14.37
2019-05-30T02:32:16.204Z,14.33
2019-05-30T02:34:45.782Z,14.33
2019-05-30T02:37:15.350Z,14.34
2019-05-30T02:39:44.926Z,14.24
2019-05-30T02:42:14.497Z,14.30
2019-05-30T02:44:44.145Z,14.38
2019-05-30T02:47:13.775Z,14.30
2019-05-30T02:49:43.354Z,14.37
2019-05-30T02:52:13.126Z,14.29
2019-05-30T02:54:42.776Z,14.32
2019-05-30T02:57:12.722Z,14.29
2019-05-30T02:59:42.404Z,14.38
2019-05-30T03:02:17.127Z,14.31
2019-05-30T03:04:43.270Z,14.27
2019-05-30T03:07:13.241Z,14.27
2019-05-30T03:09:43.093Z,14.32
2019-05-30T03:12:13.357Z,14.45
2019-05-30T03:14:43.279Z,14.38
2019-05-30T03:17:14.645Z,14.41
2019-05-30T03:19:44.562Z,14.49
2019-05-30T03:22:14.224Z,14.49
2019-05-30T03:24:43.826Z,14.43
2019-05-30T03:27:14.151Z,14.42
2019-05-30T03:29:44.005Z,14.40
2019-05-30T03:32:59.391Z,14.43
2019-05-30T03:34:46.520Z,14.46
2019-05-30T03:37:26.711Z,14.48
2019-05-30T03:39:47.671Z,14.48
2019-05-30T03:42:17.448Z,14.40
2019-05-30T03:44:46.995Z,14.35
2019-05-30T03:47:18.424Z,14.50
2019-05-30T03:49:50.410Z,14.48
2019-05-30T03:52:22.369Z,14.53
2019-05-30T03:54:52.498Z,14.50
2019-05-30T03:57:25.178Z,14.46
2019-05-30T04:00:03.361Z,14.38
2019-05-30T04:02:57.003Z,14.37
2019-05-30T04:05:37.200Z,14.25
2019-05-30T04:08:10.057Z,14.26
2019-05-30T04:10:43.495Z,14.22
2019-05-30T04:13:21.833Z,14.18
2019-05-30T04:15:51.410Z,14.23
2019-05-30T04:18:21.096Z,14.26
2019-05-30T04:20:50.698Z,14.23
2019-05-30T04:23:20.266Z,14.19
2019-05-30T04:25:49.834Z,14.21
2019-05-30T04:28:19.418Z,14.24
2019-05-30T04:30:49.082Z,14.21
2019-05-30T04:33:31.628Z,14.16
2019-05-30T04:35:49.964Z,14.26
2019-05-30T04:38:19.783Z,14.23
2019-05-30T04:40:49.511Z,14.24
2019-05-30T04:43:20.332Z,14.31
2019-05-30T04:45:50.123Z,14.38
2019-05-30T04:48:21.343Z,14.35
2019-05-30T04:50:51.093Z,14.45
2019-05-30T04:53:21.227Z,14.50
2019-05-30T04:55:50.799Z,14.49
2019-05-30T04:58:23.492Z,14.58
2019-05-30T05:00:51.873Z,14.66
2019-05-30T05:03:43.422Z,14.71
2019-05-30T05:05:52.767Z,14.73
2019-05-30T05:08:22.327Z,14.80
2019-05-30T05:10:51.898Z,14.79
2019-05-30T05:13:22.568Z,14.82
2019-05-30T05:15:52.364Z,14.86
2019-05-30T05:18:23.422Z,14.84
2019-05-30T05:20:53.433Z,14.95
2019-05-30T05:23:23.563Z,14.93
2019-05-30T05:26:00.882Z,14.99
2019-05-30T05:28:24.609Z,15.03
2019-05-30T05:30:54.196Z,14.95
2019-05-30T05:33:24.786Z,15.03
2019-05-30T05:35:54.431Z,15.06
2019-05-30T05:38:24.428Z,15.07
2019-05-30T05:40:54.152Z,15.10
2019-05-30T05:43:24.477Z,15.11
2019-05-30T05:45:54.085Z,15.10
2019-05-30T05:48:24.688Z,15.06
2019-05-30T05:50:54.443Z,15.16
2019-05-30T05:53:25.099Z,15.23
2019-05-30T05:55:54.809Z,15.31
2019-05-30T05:58:26.476Z,15.37
2019-05-30T06:00:56.120Z,15.45
2019-05-30T06:03:25.710Z,15.46
2019-05-30T06:05:55.547Z,15.53
2019-05-30T06:08:25.965Z,15.53
2019-05-30T06:10:55.515Z,15.61
2019-05-30T06:13:25.157Z,15.58
2019-05-30T06:15:54.808Z,15.58
2019-05-30T06:18:24.538Z,15.63
2019-05-30T06:20:54.141Z,15.64
2019-05-30T06:23:23.869Z,15.63
2019-05-30T06:25:53.925Z,15.62
2019-05-30T06:28:24.171Z,15.60
2019-05-30T06:30:53.862Z,15.72
2019-05-30T06:33:24.903Z,15.78
2019-05-30T06:35:54.570Z,15.79
2019-05-30T06:38:25.295Z,15.79
2019-05-30T06:40:54.863Z,15.85
2019-05-30T06:43:26.023Z,15.92
2019-05-30T06:45:55.705Z,16.02
2019-05-30T06:48:26.790Z,16.14
2019-05-30T06:50:56.457Z,16.12
2019-05-30T06:53:27.172Z,16.13
2019-05-30T06:55:56.900Z,16.24
2019-05-30T06:58:41.354Z,16.26
2019-05-30T07:00:57.825Z,16.34
2019-05-30T07:03:28.486Z,16.24
2019-05-30T07:05:58.770Z,16.20
2019-05-30T07:08:28.927Z,16.17
2019-05-30T07:10:58.573Z,16.23
2019-05-30T07:13:29.221Z,16.38
2019-05-30T07:15:59.028Z,16.40
2019-05-30T07:18:33.368Z,16.43
2019-05-30T07:21:01.435Z,16.55
2019-05-30T07:23:32.009Z,16.56
2019-05-30T07:26:03.502Z,16.72
2019-05-30T07:28:34.090Z,16.70
2019-05-30T07:31:03.839Z,16.68
2019-05-30T07:33:34.556Z,16.70
2019-05-30T07:36:06.367Z,16.68
2019-05-30T07:38:35.958Z,16.73
2019-05-30T07:41:05.800Z,16.81
2019-05-30T07:43:35.379Z,16.82
2019-05-30T07:46:05.091Z,16.85
2019-05-30T07:48:34.817Z,16.78
2019-05-30T07:51:04.663Z,16.89
2019-05-30T07:53:34.968Z,16.83
2019-05-30T07:56:05.674Z,16.70
2019-05-30T07:58:35.411Z,16.69
2019-05-30T08:01:05.113Z,16.84
2019-05-30T08:03:35.152Z,16.91
2019-05-30T08:06:05.148Z,16.91
2019-05-30T08:08:36.026Z,16.95
2019-05-30T08:11:09.220Z,17.01
2019-05-30T08:13:37.366Z,17.16
2019-05-30T08:16:07.144Z,17.03
2019-05-30T08:18:37.826Z,17.08
2019-05-30T08:21:07.563Z,17.22
2019-05-30T08:23:38.325Z,17.39
2019-05-30T08:26:08.123Z,17.48
2019-05-30T08:28:42.582Z,17.59
2019-05-30T08:31:11.814Z,17.63
2019-05-30T08:33:41.394Z,17.77
2019-05-30T08:36:11.090Z,17.85
2019-05-30T08:38:41.277Z,17.75
2019-05-30T08:41:11.015Z,17.80
2019-05-30T08:43:40.682Z,17.80
2019-05-30T08:46:10.850Z,17.80
2019-05-30T08:48:40.705Z,18.04
2019-05-30T08:51:10.270Z,18.12
2019-05-30T08:53:40.688Z,18.19
2019-05-30T08:56:10.326Z,18.11
2019-05-30T08:58:40.929Z,18.24
2019-05-30T09:01:10.545Z,18.39
2019-05-30T09:03:40.270Z,18.33
2019-05-30T09:06:09.808Z,18.29
2019-05-30T09:08:40.072Z,18.20
2019-05-30T09:11:09.752Z,18.20
2019-05-30T09:13:40.332Z,18.25
2019-05-30T09:16:10.052Z,18.35
2019-05-30T09:18:40.295Z,18.45
2019-05-30T09:21:11.068Z,18.34
2019-05-30T09:23:42.116Z,18.41
2019-05-30T09:26:11.847Z,18.56
2019-05-30T09:28:42.216Z,18.58
2019-05-30T09:31:12.203Z,18.62
2019-05-30T09:33:42.749Z,18.84
2019-05-30T09:36:13.789Z,18.81
2019-05-30T09:38:45.452Z,19.21
2019-05-30T09:41:15.346Z,19.39
2019-05-30T09:43:46.350Z,19.53
2019-05-30T09:46:16.272Z,19.39
2019-05-30T09:48:46.721Z,19.14
2019-05-30T09:51:16.474Z,18.85
2019-05-30T09:53:46.112Z,18.85
2019-05-30T09:56:15.680Z,18.96
2019-05-30T09:58:46.022Z,19.02
2019-05-30T10:01:16.002Z,18.86
2019-05-30T10:03:46.497Z,18.83
2019-05-30T10:06:29.147Z,18.77
2019-05-30T10:08:49.439Z,18.80
2019-05-30T10:11:19.477Z,18.67
2019-05-30T10:13:50.833Z,18.71
2019-05-30T10:16:20.328Z,18.82
2019-05-30T10:18:50.793Z,18.85
2019-05-30T10:21:20.520Z,18.92
2019-05-30T10:23:52.457Z,19.02
2019-05-30T10:26:21.555Z,18.99
2019-05-30T10:28:51.473Z,19.08
2019-05-30T10:31:21.087Z,18.95
2019-05-30T10:33:51.063Z,19.11
2019-05-30T10:36:20.816Z,19.33
2019-05-30T10:38:51.077Z,19.62
2019-05-30T10:41:21.802Z,19.53
2019-05-30T10:43:51.387Z,19.61
2019-05-30T10:46:21.032Z,19.52
2019-05-30T10:48:51.045Z,19.69
2019-05-30T10:51:20.984Z,19.84
2019-05-30T10:53:52.193Z,20.01
2019-05-30T10:56:21.895Z,19.73
2019-05-30T10:58:52.813Z,19.69
2019-05-30T11:01:22.786Z,19.52
2019-05-30T11:03:52.701Z,19.48
2019-05-30T11:06:43.130Z,19.52
2019-05-30T11:09:15.138Z,19.50
2019-05-30T11:11:44.722Z,19.66
2019-05-30T11:14:14.280Z,19.71
2019-05-30T11:16:44.237Z,19.62
2019-05-30T11:19:13.828Z,19.80
2019-05-30T11:21:43.509Z,19.92
2019-05-30T11:24:13.121Z,20.10
2019-05-30T11:26:42.915Z,20.15
2019-05-30T11:29:12.625Z,20.12
2019-05-30T11:31:42.203Z,20.16
2019-05-30T11:34:11.882Z,20.04
2019-05-30T11:36:41.470Z,19.94
2019-05-30T11:39:11.057Z,20.01
2019-05-30T11:41:40.642Z,19.82
2019-05-30T11:44:10.223Z,19.89
2019-05-30T11:46:39.805Z,19.97
2019-05-30T11:49:09.377Z,20.04
2019-05-30T11:51:38.988Z,20.11
2019-05-30T11:54:08.537Z,20.12
2019-05-30T11:56:38.239Z,20.17
2019-05-30T11:59:07.888Z,20.12
2019-05-30T12:01:37.448Z,20.03
2019-05-30T12:04:07.129Z,20.11
2019-05-30T12:06:36.758Z,20.19
2019-05-30T12:09:07.889Z,20.26
2019-05-30T12:11:37.705Z,20.48
2019-05-30T12:14:07.398Z,20.60
2019-05-30T12:16:37.195Z,20.79
2019-05-30T12:19:07.126Z,20.82
2019-05-30T12:21:36.691Z,20.60
2019-05-30T12:24:06.347Z,20.44
2019-05-30T12:26:35.952Z,20.23
2019-05-30T12:29:05.562Z,20.27
2019-05-30T12:31:35.145Z,20.22
2019-05-30T12:34:04.878Z,20.27
2019-05-30T12:36:34.473Z,20.46
2019-05-30T12:39:05.697Z,20.26
2019-05-30T12:41:35.301Z,20.22
2019-05-30T12:44:05.317Z,20.17
2019-05-30T12:46:34.877Z,20.20
2019-05-30T12:49:04.802Z,20.30
2019-05-30T12:51:34.406Z,20.23
2019-05-30T12:54:04.334Z,20.29
2019-05-30T12:56:33.915Z,20.38
2019-05-30T12:59:03.597Z,20.32
2019-05-30T13:01:33.192Z,20.38
2019-05-30T13:04:03.276Z,20.23
2019-05-30T13:06:33.134Z,20.24
2019-05-30T13:09:03.421Z,20.24
2019-05-30T13:11:33.037Z,20.12
2019-05-30T13:14:02.790Z,20.10
2019-05-30T13:16:32.378Z,19.93
2019-05-30T13:19:02.344Z,19.88
2019-05-30T13:21:31.948Z,19.44
2019-05-30T13:24:01.982Z,19.23
2019-05-30T13:26:31.682Z,19.24
2019-05-30T13:29:02.301Z,19.15
2019-05-30T13:31:32.129Z,19.16
2019-05-30T13:34:02.782Z,19.09
2019-05-30T13:36:32.621Z,18.98
2019-05-30T13:39:03.257Z,19.02
2019-05-30T13:41:33.150Z,18.84
2019-05-30T13:44:06.231Z,18.88
2019-05-30T13:46:34.156Z,18.91
2019-05-30T13:49:04.761Z,18.89
2019-05-30T13:51:34.609Z,18.69
2019-05-30T13:54:05.307Z,18.92
2019-05-30T13:56:34.969Z,18.97
2019-05-30T13:59:05.872Z,18.93
2019-05-30T14:01:35.583Z,18.75
2019-05-30T14:04:06.284Z,18.81
2019-05-30T14:06:35.926Z,19.00
2019-05-30T14:09:08.418Z,18.99
2019-05-30T14:11:38.212Z,18.97
2019-05-30T14:14:08.912Z,18.82
2019-05-30T14:16:38.576Z,18.92
2019-05-30T14:19:09.791Z,18.97
2019-05-30T14:21:39.606Z,19.07
2019-05-30T14:24:09.532Z,19.22
2019-05-30T14:26:39.017Z,19.28
2019-05-30T14:29:09.774Z,19.40
2019-05-30T14:31:39.499Z,19.46
2019-05-30T14:34:10.211Z,19.67
2019-05-30T14:36:39.786Z,19.73
2019-05-30T14:39:09.442Z,19.59
2019-05-30T14:41:39.021Z,19.59
2019-05-30T14:44:08.681Z,19.70
2019-05-30T14:46:38.271Z,19.74
2019-05-30T14:49:08.616Z,19.73
2019-05-30T14:51:38.213Z,19.71
2019-05-30T14:54:08.858Z,19.83
2019-05-30T14:56:38.654Z,19.90
2019-05-30T14:59:08.933Z,20.01
2019-05-30T15:01:38.496Z,20.07
2019-05-30T15:04:09.122Z,20.23
2019-05-30T15:06:38.722Z,20.30
2019-05-30T15:09:20.161Z,20.21
2019-05-30T15:11:39.765Z,20.39
2019-05-30T15:14:09.615Z,20.47
2019-05-30T15:16:40.312Z,20.50
2019-05-30T15:19:10.297Z,20.52
2019-05-30T15:21:39.995Z,20.69
2019-05-30T15:24:09.819Z,20.74
2019-05-30T15:26:39.440Z,20.87
2019-05-30T15:29:10.068Z,20.78
2019-05-30T15:31:39.716Z,20.90
2019-05-30T15:34:10.467Z,21.04
2019-05-30T15:36:40.166Z,21.25
2019-05-30T15:39:10.880Z,21.17
2019-05-30T15:41:40.534Z,21.03
2019-05-30T15:44:10.109Z,20.76
2019-05-30T15:46:39.667Z,20.72
2019-05-30T15:49:10.190Z,20.62
2019-05-30T15:51:39.798Z,20.72
2019-05-30T15:54:09.369Z,20.66
2019-05-30T15:56:38.978Z,20.75
2019-05-30T15:59:09.548Z,20.86
2019-05-30T16:01:39.249Z,20.86
2019-05-30T16:04:10.005Z,21.01
2019-05-30T16:06:39.571Z,20.81
2019-05-30T16:09:10.645Z,20.69
2019-05-30T16:11:40.243Z,20.65
2019-05-30T16:14:11.072Z,20.56
2019-05-30T16:16:40.782Z,20.46
2019-05-30T16:19:17.357Z,20.43
2019-05-30T16:21:41.980Z,20.32
2019-05-30T16:24:12.370Z,20.27
2019-05-30T16:26:42.057Z,20.30
2019-05-30T16:29:11.742Z,20.24
2019-05-30T16:31:41.400Z,20.30
2019-05-30T16:34:11.070Z,20.30
2019-05-30T16:36:40.749Z,20.26
2019-05-30T16:39:10.508Z,20.29
2019-05-30T16:41:42.821Z,20.38
2019-05-30T16:44:11.350Z,20.44
2019-05-30T16:46:40.904Z,20.40
2019-05-30T16:49:10.483Z,20.47
2019-05-30T16:51:40.318Z,20.50
2019-05-30T16:54:09.945Z,20.45
2019-05-30T16:56:39.590Z,20.38
2019-05-30T16:59:09.263Z,20.49
2019-05-30T17:01:39.049Z,20.60
2019-05-30T17:04:08.673Z,20.85
2019-05-30T17:06:38.253Z,20.83
2019-05-30T17:09:07.962Z,20.78
2019-05-30T17:11:37.579Z,20.79
2019-05-30T17:14:07.153Z,21.01
2019-05-30T17:16:36.719Z,21.26
2019-05-30T17:19:06.394Z,21.44
2019-05-30T17:21:36.034Z,21.49
2019-05-30T17:24:05.610Z,21.72
2019-05-30T17:26:35.176Z,21.72
2019-05-30T17:29:04.829Z,21.65
2019-05-30T17:31:34.380Z,21.86
2019-05-30T17:34:03.977Z,21.84
2019-05-30T17:36:33.532Z,21.68
2019-05-30T17:39:03.144Z,21.50
2019-05-30T17:41:32.720Z,21.51
2019-05-30T17:44:02.307Z,21.55
2019-05-30T17:46:31.950Z,21.56
2019-05-30T17:49:01.632Z,21.57
2019-05-30T17:51:31.194Z,21.52
2019-05-30T17:54:01.432Z,21.53
2019-05-30T17:56:31.096Z,21.57
2019-05-30T17:59:01.637Z,21.63
2019-05-30T18:01:31.372Z,21.36
2019-05-30T18:04:01.598Z,21.41
2019-05-30T18:06:31.150Z,21.35
2019-05-30T18:09:01.175Z,21.29
2019-05-30T18:11:31.107Z,21.20
2019-05-30T18:14:00.650Z,21.10
2019-05-30T18:16:31.428Z,20.96
2019-05-30T18:19:01.388Z,20.92
2019-05-30T18:21:31.840Z,20.91
2019-05-30T18:24:02.140Z,20.85
2019-05-30T18:26:31.985Z,20.72
2019-05-30T18:29:01.653Z,20.64
2019-05-30T18:31:32.324Z,20.50
2019-05-30T18:34:02.022Z,20.50
2019-05-30T18:36:32.670Z,20.50
2019-05-30T18:39:02.537Z,20.39
2019-05-30T18:41:32.874Z,20.28
2019-05-30T18:44:02.648Z,20.21
2019-05-30T18:46:33.349Z,20.15
2019-05-30T18:49:03.874Z,20.11
2019-05-30T18:51:33.558Z,20.07
2019-05-30T18:54:03.280Z,20.02
2019-05-30T18:56:33.239Z,20.00
2019-05-30T18:59:02.815Z,19.92
2019-05-30T19:01:33.755Z,19.81
2019-05-30T19:04:03.727Z,19.83
2019-05-30T19:06:33.848Z,19.84
2019-05-30T19:09:04.024Z,19.71
2019-05-30T19:11:36.319Z,19.71
2019-05-30T19:14:05.506Z,19.66
2019-05-30T19:16:36.684Z,19.58
2019-05-30T19:19:06.775Z,19.55
2019-05-30T19:21:36.355Z,19.38
2019-05-30T19:24:06.090Z,19.36
2019-05-30T19:26:36.737Z,19.19
2019-05-30T19:29:06.564Z,19.20
2019-05-30T19:31:36.953Z,19.15
2019-05-30T19:34:06.669Z,19.11
2019-05-30T19:36:37.301Z,19.03
2019-05-30T19:39:07.513Z,18.98
2019-05-30T19:41:52.586Z,18.91
2019-05-30T19:44:08.452Z,18.92
2019-05-30T19:46:38.406Z,18.88
2019-05-30T19:49:07.999Z,18.74
2019-05-30T19:51:37.592Z,18.73
2019-05-30T19:54:07.160Z,18.55
2019-05-30T19:56:40.151Z,18.49
2019-05-30T19:59:08.141Z,18.38
2019-05-30T20:01:38.043Z,18.27
2019-05-30T20:04:07.780Z,18.09
2019-05-30T20:06:37.362Z,17.95
2019-05-30T20:09:07.577Z,17.96
2019-05-30T20:11:37.333Z,17.91
2019-05-30T20:14:07.053Z,17.90
2019-05-30T20:16:37.754Z,17.82
2019-05-30T20:19:07.461Z,17.83
2019-05-30T20:21:37.830Z,17.82
2019-05-30T20:24:07.401Z,17.72
2019-05-30T20:26:37.003Z,17.70
2019-05-30T20:29:06.649Z,17.61
2019-05-30T20:31:37.304Z,17.64
2019-05-30T20:34:06.903Z,17.58
2019-05-30T20:36:36.518Z,17.54
2019-05-30T20:39:07.194Z,17.49
2019-05-30T20:41:36.955Z,17.46
2019-05-30T20:44:06.560Z,17.41
2019-05-30T20:46:37.070Z,17.34
2019-05-30T20:49:06.718Z,17.33
2019-05-30T20:51:37.242Z,17.28
2019-05-30T20:54:07.763Z,17.22
2019-05-30T20:56:37.473Z,17.11
2019-05-30T20:59:10.080Z,17.10
2019-05-30T21:01:39.590Z,17.05
2019-05-30T21:04:09.343Z,17.10
2019-05-30T21:06:39.246Z,17.05
2019-05-30T21:09:27.302Z,16.96
2019-05-30T21:11:44.239Z,16.95
2019-05-30T21:14:15.927Z,16.90
2019-05-30T21:16:48.525Z,16.86
2019-05-30T21:19:18.189Z,16.86
2019-05-30T21:21:47.857Z,16.79
2019-05-30T21:24:17.447Z,16.78
2019-05-30T21:26:47.051Z,16.70
2019-05-30T21:29:16.625Z,16.63
2019-05-30T21:31:47.468Z,16.63
2019-05-30T21:34:17.140Z,16.61
2019-05-30T21:36:47.980Z,16.60
2019-05-30T21:39:17.607Z,16.59
2019-05-30T21:41:48.453Z,16.59
2019-05-30T21:44:18.218Z,16.51
2019-05-30T21:46:48.944Z,16.49
2019-05-30T21:49:18.638Z,16.47
2019-05-30T21:51:48.221Z,16.41
2019-05-30T21:54:17.803Z,16.40
2019-05-30T21:56:48.404Z,16.48
2019-05-30T21:59:17.999Z,16.43
2019-05-30T22:01:48.714Z,16.39
2019-05-30T22:04:18.321Z,16.37
2019-05-30T22:06:48.921Z,16.34
2019-05-30T22:09:18.758Z,16.35
2019-05-30T22:11:49.606Z,16.21
2019-05-30T22:14:19.197Z,16.15
2019-05-30T22:16:50.135Z,16.07
2019-05-30T22:19:20.323Z,16.06
2019-05-30T22:21:50.307Z,16.07
2019-05-30T22:24:20.015Z,16.08
2019-05-30T22:26:50.797Z,16.01
2019-05-30T22:29:20.488Z,15.96
2019-05-30T22:31:51.024Z,15.96
2019-05-30T22:34:21.129Z,15.93
2019-05-30T22:36:51.012Z,15.99
2019-05-30T22:39:20.605Z,15.90
2019-05-30T22:41:50.211Z,15.93
2019-05-30T22:44:19.785Z,15.89
2019-05-30T22:46:50.246Z,15.86
2019-05-30T22:49:20.048Z,15.87
2019-05-30T22:51:49.626Z,15.94
2019-05-30T22:54:19.214Z,15.96
2019-05-30T22:56:49.390Z,15.92
2019-05-30T22:59:18.955Z,15.92
2019-05-30T23:01:48.890Z,15.84
2019-05-30T23:04:18.656Z,15.85
2019-05-30T23:06:48.341Z,15.86
2019-05-30T23:09:17.935Z,15.79
2019-05-30T23:11:47.725Z,15.77
2019-05-30T23:14:17.309Z,15.73
2019-05-30T23:16:48.139Z,15.68
2019-05-30T23:19:17.784Z,15.63
2019-05-30T23:21:47.342Z,15.60
2019-05-30T23:24:17.001Z,15.58
2019-05-30T23:26:47.402Z,15.57
2019-05-30T23:29:16.965Z,15.54
2019-05-30T23:31:47.931Z,15.55
2019-05-30T23:34:17.668Z,15.50
2019-05-30T23:36:48.551Z,15.43
2019-05-30T23:39:18.060Z,15.43
2019-05-30T23:41:48.862Z,15.44
2019-05-30T23:44:18.470Z,15.43
2019-05-30T23:46:49.272Z,15.39
2019-05-30T23:49:19.105Z,15.37
2019-05-30T23:51:49.871Z,15.33
2019-05-30T23:54:20.146Z,15.34
2019-05-30T23:56:50.544Z,15.30
2019-05-30T23:59:20.175Z,15.24
